Nearby METAR Reports

 

EGEO - Oban, United Kingdom
Distance from station: SSW 18mi, 30km
Updated: 11/11/2019 15:50
NOT Current
Rain showers, Small hail, Mostly cloudy
Rain showers, Small hail, Mostly cloudy
 Wind from NW
Wind: NW 26 mph , 43 km/h
Temperature: 7°C
Wind Chill: 2°C
Dew Point: 5°C
Humidity: 87%
Barometer: 991 hPa
Summary: Rain showers, Small hail
Clouds: Mostly cloudy
Visibility: 5 miles , 8 km
Cloud details: Few Clouds 427 m
Mostly cloudy 640 m
2019/11/11 15:50 EGEO 111550Z 31023KT 8000 SHRAGS FEW014 BKN021 07/05 Q0991
EGPU - Tiree, United Kingdom
Distance from station: WSW 64mi, 103km
Updated: 14/11/2019 20:50
Mostly cloudy
Mostly cloudy
 Wind from NNE
Wind: NNE 22 mph , 35 km/h
Temperature: 6°C
Wind Chill: 1°C
Dew Point: 1°C
Humidity: 71%
Barometer: 1017 hPa
Clouds: Mostly cloudy
Visibility: 6 miles , 10 km
Cloud details: Few Clouds 1036 m
Mostly cloudy 1250 m
2019/11/14 20:50 EGPU 142050Z AUTO 02019KT 9999 FEW034/// BKN041/// 06/01 Q1017 RERA
EGPF - Glasgow, United Kingdom
Distance from station: SSE 66mi, 107km
Updated: 14/11/2019 20:50
Clear
Clear
 Wind from NW
Wind: NW 7 mph , 11 km/h
Temperature: 2°C
Wind Chill: -1°C
Dew Point: -2°C
Humidity: 75%
Barometer: 1014 hPa
Clouds: Clear
Visibility: 6 miles , 10 km
2019/11/14 20:50 EGPF 142050Z AUTO 31006KT 9999 NCD 02/M02 Q1014
 
EGPE - Inverness, United Kingdom
Distance from station: NE 71mi, 114km
Updated: 14/11/2019 20:50
Partly cloudy
Partly cloudy
 Wind from NNW
Wind: NNW 7 mph , 11 km/h
Temperature: 4°C
Wind Chill: 1°C
Dew Point: 2°C
Humidity: 87%
Barometer: 1016 hPa
Clouds: Partly cloudy
Visibility: 6 miles , 10 km
Cloud details: Few Clouds 366 m
Partly cloudy 853 m
2019/11/14 20:50 EGPE 142050Z 34006KT 9999 FEW012 SCT028 04/02 Q1016
EGPI - Islay/Port Ellen, United Kingdom
Distance from station: SSW 81mi, 131km
Updated: 14/11/2019 20:50
Clear
Clear
 Wind from N
Wind: N 13 mph , 20 km/h
Temperature: 3°C
Wind Chill: -2°C
Dew Point: 1°C
Humidity: 87%
Barometer: 1015 hPa
Clouds: Clear
Visibility: 6 miles , 10 km
2019/11/14 20:50 EGPI 142050Z AUTO 36011KT 330V030 9999 NCD 03/01 Q1015
EGPN - Dundee/Riverside, United Kingdom
Distance from station: E 86mi, 138km
Updated: 14/11/2019 20:20
Few Clouds
Few Clouds
 Wind from varies
Wind: varies 3 mph , 6 km/h
Temperature: 5°C
Dew Point: 0°C
Humidity: 70%
Barometer: 1013 hPa
Clouds: Few Clouds
Visibility: 6 miles , 10 km
Cloud details: Few Clouds 1463 m
2019/11/14 20:20 EGPN 142020Z VRB03KT 9999 FEW048 05/00 Q1013
 
EGPK - Prestwick, United Kingdom
Distance from station: SSE 88mi, 141km
Updated: 14/11/2019 20:50
Few Clouds
Few Clouds
 Wind from calm
Wind: Calm
Temperature: -1°C
Dew Point: -3°C
Humidity: 86%
Barometer: 1014 hPa
Clouds: Few Clouds
Visibility: 6 miles , 10 km
Cloud details: Few Clouds 1372 m
2019/11/14 20:50 EGPK 142050Z 00000KT 9999 FEW045 M01/M03 Q1014
EGPH - Edinburgh, United Kingdom
Distance from station: SE 89mi, 143km
Updated: 14/11/2019 20:50
Clear
Clear
 Wind from N
Wind: N 7 mph , 11 km/h
Temperature: 3°C
Wind Chill: 0°C
Dew Point: -1°C
Humidity: 75%
Barometer: 1013 hPa
Summary: Clear
Visibility: greater than 7 miles , 10 km
2019/11/14 20:50 EGPH 142050Z 35006KT CAVOK 03/M01 Q1013
EGQK - RAF Kinloss, United Kingdom
Distance from station: NE 90mi, 144km
Updated: 14/11/2019 20:50
Mostly cloudy
Mostly cloudy
 Wind from N
Wind: N 21 mph , 33 km/h
Temperature: 5°C
Wind Chill: 0°C
Dew Point: 3°C
Humidity: 87%
Barometer: 1015 hPa
Clouds: Mostly cloudy
Visibility: 6 miles , 10 km
Cloud details: Few Clouds 640 m
Mostly cloudy 1402 m
2019/11/14 20:50 EGQK 142050Z AUTO 35018KT 9999 FEW021/// BKN046/// 05/03 Q1015
 
EGEC - Campbeltown, United Kingdom
Distance from station: S 90mi, 145km
Updated: 14/11/2019 17:20
NOT Current
Few Clouds
Few Clouds
 Wind from NE
Wind: NE 7 mph , 11 km/h
Temperature: 4°C
Wind Chill: 1°C
Dew Point: -1°C
Humidity: 70%
Barometer: 1013 hPa
Clouds: Few Clouds
Visibility: 6 miles , 10 km
Cloud details: Few Clouds 762 m
2019/11/14 17:20 EGEC 141720Z 05006KT 9999 FEW025 04/M01 Q1013
EGQA - Tain Range, United Kingdom
Distance from station: NNE 91mi, 146km
Updated: 14/11/2019 14:50
NOT Current
Nearby showers, Partly cloudy
Nearby showers, Partly cloudy
 Wind from WNW
Wind: WNW 17 mph , 28 km/h
Summary: Nearby Showers
Clouds: Partly cloudy
Visibility: 6 miles , 10 km
Cloud details: Few Clouds 366 m
Partly cloudy 518 m
2019/11/14 14:50 EGQA 141450Z 30015KT 9999 VCSH FEW012 SCT017CB 04/// Q1012 RMK WHT
EGQL - RAF Leuchars, United Kingdom
Distance from station: ESE 93mi, 149km
Updated: 14/11/2019 20:50
Clear
Clear
 Wind from NNW
Wind: NNW 7 mph , 11 km/h
Temperature: 4°C
Wind Chill: 1°C
Dew Point: 0°C
Humidity: 75%
Barometer: 1012 hPa
Summary: Clear
Visibility: greater than 7 miles , 10 km
2019/11/14 20:50 EGQL 142050Z 34006KT CAVOK 04/00 Q1012 BLU
 
EGPL - Benbecula, United Kingdom
Distance from station: WNW 96mi, 154km
Updated: 14/11/2019 20:50
Clear
Clear
 Wind from N
Wind: N 16 mph , 26 km/h
Temperature: 4°C
Wind Chill: -1°C
Dew Point: 2°C
Humidity: 87%
Barometer: 1019 hPa
Clouds: Clear
Visibility: 6 miles , 10 km
2019/11/14 20:50 EGPL 142050Z AUTO 35014KT 9999 NCD 04/02 Q1019
EGQS - RAF Lossiemouth, United Kingdom
Distance from station: NE 99mi, 160km
Updated: 14/11/2019 20:50
Few Clouds
Few Clouds
 Wind from N
Wind: N 21 mph , 33 km/h
Temperature: 6°C
Wind Chill: 1°C
Dew Point: 3°C
Humidity: 81%
Barometer: 1014 hPa
Clouds: Few Clouds
Visibility: 6 miles , 10 km
Cloud details: Few Clouds 549 m
2019/11/14 20:50 EGQS 142050Z 35018KT 9999 FEW018CB 06/03 Q1014 RMK BLU
EGPO - Stornoway, United Kingdom
Distance from station: NNW 111mi, 179km
Updated: 14/11/2019 20:50
Clear
Clear
 Wind from N
Wind: N 12 mph , 19 km/h
Temperature: 4°C
Wind Chill: 0°C
Dew Point: 0°C
Humidity: 75%
Barometer: 1018 hPa
Clouds: Clear
Visibility: 6 miles , 10 km
2019/11/14 20:50 EGPO 142050Z AUTO 35010KT 9999 NCD 04/00 Q1018
 
EGPD - Aberdeen/Dyce, United Kingdom
Distance from station: ENE 118mi, 190km
Updated: 14/11/2019 20:50
Mostly cloudy
Mostly cloudy
 Wind from NW
Wind: NW 14 mph , 22 km/h
Temperature: 4°C
Wind Chill: -1°C
Dew Point: 2°C
Humidity: 87%
Barometer: 1013 hPa
Clouds: Mostly cloudy
Visibility: 6 miles , 10 km
Cloud details: Partly cloudy 823 m
Mostly cloudy 975 m
Mostly cloudy 1219 m
2019/11/14 20:50 EGPD 142050Z AUTO 31012KT 9999 SCT027 BKN032 BKN040 04/02 Q1013 NOSIG
EGAE - Eglinton/Londond, United Kingdom
Distance from station: SSW 138mi, 222km
Updated: 14/11/2019 20:50
Partly cloudy
Partly cloudy
 Wind from N
Wind: N 17 mph , 28 km/h
Temperature: 6°C
Wind Chill: 2°C
Dew Point: 3°C
Humidity: 81%
Barometer: 1016 hPa
Clouds: Partly cloudy
Visibility: 6 miles , 10 km
Cloud details: Few Clouds 488 m
Partly cloudy 1067 m
2019/11/14 20:50 EGAE 142050Z 36015KT 9999 FEW016 SCT035 06/03 Q1016
EGPC - Wick, United Kingdom
Distance from station: NNE 144mi, 232km
Updated: 14/11/2019 20:50
Mostly cloudy
Mostly cloudy
 Wind from N
Wind: N 13 mph , 20 km/h
Temperature: 4°C
Wind Chill: -1°C
Dew Point: 2°C
Humidity: 87%
Barometer: 1015 hPa
Clouds: Mostly cloudy
Visibility: 6 miles , 10 km
Cloud details: Few Clouds 488 m
Partly cloudy 762 m
Mostly cloudy 1067 m
2019/11/14 20:50 EGPC 142050Z 35011KT 9999 FEW016CB SCT025 BKN035 04/02 Q1015

Metar display script from Saratoga-Weather.org